sensor_id;sensor_type;location;lat;lon;timestamp;P1;durP1;ratioP1;P2;durP2;ratioP2
9906;SDS011;4992;51.628;6.664;2022-09-14T00:02:03;7.20;;;1.17;;
9906;SDS011;4992;51.628;6.664;2022-09-14T00:04:29;6.32;;;1.20;;
9906;SDS011;4992;51.628;6.664;2022-09-14T00:06:55;2.63;;;0.80;;
9906;SDS011;4992;51.628;6.664;2022-09-14T00:09:21;3.00;;;0.85;;
9906;SDS011;4992;51.628;6.664;2022-09-14T00:11:48;5.85;;;1.15;;
9906;SDS011;4992;51.628;6.664;2022-09-14T00:14:14;4.43;;;1.02;;
9906;SDS011;4992;51.628;6.664;2022-09-14T00:16:41;4.68;;;1.08;;
9906;SDS011;4992;51.628;6.664;2022-09-14T00:19:14;5.47;;;1.05;;
9906;SDS011;4992;51.628;6.664;2022-09-14T00:21:54;3.60;;;1.02;;
9906;SDS011;4992;51.628;6.664;2022-09-14T00:24:23;5.57;;;0.98;;
9906;SDS011;4992;51.628;6.664;2022-09-14T00:26:50;6.55;;;1.10;;
9906;SDS011;4992;51.628;6.664;2022-09-14T00:29:16;6.03;;;1.00;;
9906;SDS011;4992;51.628;6.664;2022-09-14T00:31:41;3.80;;;0.90;;
9906;SDS011;4992;51.628;6.664;2022-09-14T00:34:08;2.70;;;0.80;;
9906;SDS011;4992;51.628;6.664;2022-09-14T00:36:38;4.65;;;0.82;;
9906;SDS011;4992;51.628;6.664;2022-09-14T00:39:05;7.03;;;1.15;;
9906;SDS011;4992;51.628;6.664;2022-09-14T00:41:33;6.65;;;1.30;;
9906;SDS011;4992;51.628;6.664;2022-09-14T00:46:52;6.38;;;1.02;;
9906;SDS011;4992;51.628;6.664;2022-09-14T00:49:21;6.88;;;1.10;;
9906;SDS011;4992;51.628;6.664;2022-09-14T00:52:05;6.38;;;0.80;;
9906;SDS011;4992;51.628;6.664;2022-09-14T00:55:16;5.07;;;1.45;;
9906;SDS011;4992;51.628;6.664;2022-09-14T00:57:24;3.25;;;1.08;;
9906;SDS011;4992;51.628;6.664;2022-09-14T00:59:51;2.47;;;0.80;;
9906;SDS011;4992;51.628;6.664;2022-09-14T01:02:18;2.30;;;0.52;;
9906;SDS011;4992;51.628;6.664;2022-09-14T01:04:46;7.68;;;0.90;;
9906;SDS011;4992;51.628;6.664;2022-09-14T01:07:16;3.58;;;1.00;;
9906;SDS011;4992;51.628;6.664;2022-09-14T01:28:59;3.58;;;0.82;;
9906;SDS011;4992;51.628;6.664;2022-09-14T01:36:45;5.30;;;1.15;;
9906;SDS011;4992;51.628;6.664;2022-09-14T01:39:15;6.18;;;0.88;;
9906;SDS011;4992;51.628;6.664;2022-09-14T01:41:45;6.03;;;1.00;;
9906;SDS011;4992;51.628;6.664;2022-09-14T01:44:15;2.15;;;0.80;;
9906;SDS011;4992;51.628;6.664;2022-09-14T01:46:50;3.47;;;0.85;;
9906;SDS011;4992;51.628;6.664;2022-09-14T01:49:27;5.55;;;1.13;;
9906;SDS011;4992;51.628;6.664;2022-09-14T01:52:15;3.50;;;0.70;;
9906;SDS011;4992;51.628;6.664;2022-09-14T01:54:48;4.45;;;0.70;;
9906;SDS011;4992;51.628;6.664;2022-09-14T01:57:22;4.63;;;1.05;;
9906;SDS011;4992;51.628;6.664;2022-09-14T01:59:52;4.03;;;0.60;;
9906;SDS011;4992;51.628;6.664;2022-09-14T02:02:31;4.53;;;0.90;;
9906;SDS011;4992;51.628;6.664;2022-09-14T02:07:34;4.13;;;0.80;;
9906;SDS011;4992;51.628;6.664;2022-09-14T02:10:01;6.40;;;0.93;;
9906;SDS011;4992;51.628;6.664;2022-09-14T02:12:29;3.47;;;0.80;;
9906;SDS011;4992;51.628;6.664;2022-09-14T02:14:55;2.67;;;0.70;;
9906;SDS011;4992;51.628;6.664;2022-09-14T02:17:20;6.45;;;0.75;;
9906;SDS011;4992;51.628;6.664;2022-09-14T02:19:47;4.70;;;0.90;;
9906;SDS011;4992;51.628;6.664;2022-09-14T02:22:17;2.25;;;0.60;;
9906;SDS011;4992;51.628;6.664;2022-09-14T02:24:42;5.15;;;1.02;;
9906;SDS011;4992;51.628;6.664;2022-09-14T02:27:08;7.70;;;0.57;;
9906;SDS011;4992;51.628;6.664;2022-09-14T02:29:34;8.73;;;0.90;;
9906;SDS011;4992;51.628;6.664;2022-09-14T02:32:03;7.35;;;1.00;;
9906;SDS011;4992;51.628;6.664;2022-09-14T02:40:22;6.47;;;0.90;;
9906;SDS011;4992;51.628;6.664;2022-09-14T02:46:18;3.85;;;1.30;;
9906;SDS011;4992;51.628;6.664;2022-09-14T02:52:15;9.88;;;0.80;;
9906;SDS011;4992;51.628;6.664;2022-09-14T02:54:51;3.47;;;0.70;;
9906;SDS011;4992;51.628;6.664;2022-09-14T02:57:22;4.85;;;1.13;;
9906;SDS011;4992;51.628;6.664;2022-09-14T02:59:49;6.32;;;1.08;;
9906;SDS011;4992;51.628;6.664;2022-09-14T03:02:17;1.38;;;0.47;;
9906;SDS011;4992;51.628;6.664;2022-09-14T03:04:42;6.50;;;0.73;;
9906;SDS011;4992;51.628;6.664;2022-09-14T03:07:09;9.15;;;0.93;;
9906;SDS011;4992;51.628;6.664;2022-09-14T03:09:34;7.38;;;1.10;;
9906;SDS011;4992;51.628;6.664;2022-09-14T03:12:00;4.20;;;0.93;;
9906;SDS011;4992;51.628;6.664;2022-09-14T03:14:26;6.78;;;0.88;;
9906;SDS011;4992;51.628;6.664;2022-09-14T03:16:51;3.42;;;0.80;;
9906;SDS011;4992;51.628;6.664;2022-09-14T03:19:17;4.00;;;0.57;;
9906;SDS011;4992;51.628;6.664;2022-09-14T03:21:42;4.90;;;0.80;;
9906;SDS011;4992;51.628;6.664;2022-09-14T03:24:08;6.65;;;0.70;;
9906;SDS011;4992;51.628;6.664;2022-09-14T03:26:33;6.50;;;1.05;;
9906;SDS011;4992;51.628;6.664;2022-09-14T03:29:02;6.95;;;1.00;;
9906;SDS011;4992;51.628;6.664;2022-09-14T03:31:29;3.22;;;0.90;;
9906;SDS011;4992;51.628;6.664;2022-09-14T03:33:56;2.88;;;0.80;;
9906;SDS011;4992;51.628;6.664;2022-09-14T03:36:24;4.35;;;0.90;;
9906;SDS011;4992;51.628;6.664;2022-09-14T03:38:52;2.53;;;0.75;;
9906;SDS011;4992;51.628;6.664;2022-09-14T03:41:20;4.47;;;0.68;;
9906;SDS011;4992;51.628;6.664;2022-09-14T03:43:47;3.17;;;0.73;;
9906;SDS011;4992;51.628;6.664;2022-09-14T03:46:13;6.47;;;0.90;;
9906;SDS011;4992;51.628;6.664;2022-09-14T03:48:40;4.53;;;0.77;;
9906;SDS011;4992;51.628;6.664;2022-09-14T03:51:07;7.50;;;1.60;;
9906;SDS011;4992;51.628;6.664;2022-09-14T03:53:34;5.10;;;0.90;;
9906;SDS011;4992;51.628;6.664;2022-09-14T03:56:00;3.50;;;0.73;;
9906;SDS011;4992;51.628;6.664;2022-09-14T03:58:26;5.25;;;0.80;;
9906;SDS011;4992;51.628;6.664;2022-09-14T04:00:56;5.07;;;0.80;;
9906;SDS011;4992;51.628;6.664;2022-09-14T04:03:28;2.85;;;0.88;;
9906;SDS011;4992;51.628;6.664;2022-09-14T04:05:54;4.88;;;0.93;;
9906;SDS011;4992;51.628;6.664;2022-09-14T04:08:20;3.15;;;0.98;;
9906;SDS011;4992;51.628;6.664;2022-09-14T04:10:46;4.43;;;1.05;;
9906;SDS011;4992;51.628;6.664;2022-09-14T04:13:12;3.58;;;1.00;;
9906;SDS011;4992;51.628;6.664;2022-09-14T04:15:37;2.75;;;0.90;;
9906;SDS011;4992;51.628;6.664;2022-09-14T04:18:03;2.83;;;0.90;;
9906;SDS011;4992;51.628;6.664;2022-09-14T04:20:28;4.20;;;1.20;;
9906;SDS011;4992;51.628;6.664;2022-09-14T04:22:54;5.72;;;0.90;;
9906;SDS011;4992;51.628;6.664;2022-09-14T04:25:20;5.95;;;0.90;;
9906;SDS011;4992;51.628;6.664;2022-09-14T04:27:47;4.25;;;1.27;;
9906;SDS011;4992;51.628;6.664;2022-09-14T04:30:14;3.58;;;0.80;;
9906;SDS011;4992;51.628;6.664;2022-09-14T04:32:39;2.88;;;1.10;;
9906;SDS011;4992;51.628;6.664;2022-09-14T04:35:05;6.03;;;1.50;;
9906;SDS011;4992;51.628;6.664;2022-09-14T04:37:31;5.68;;;1.05;;
9906;SDS011;4992;51.628;6.664;2022-09-14T04:39:57;5.03;;;1.23;;
9906;SDS011;4992;51.628;6.664;2022-09-14T04:42:24;5.57;;;0.88;;
9906;SDS011;4992;51.628;6.664;2022-09-14T04:44:49;2.67;;;1.10;;
9906;SDS011;4992;51.628;6.664;2022-09-14T04:47:15;4.95;;;0.90;;
9906;SDS011;4992;51.628;6.664;2022-09-14T04:49:40;4.70;;;0.85;;
9906;SDS011;4992;51.628;6.664;2022-09-14T04:52:06;5.80;;;1.30;;
9906;SDS011;4992;51.628;6.664;2022-09-14T04:54:31;5.50;;;1.05;;
9906;SDS011;4992;51.628;6.664;2022-09-14T04:56:57;5.97;;;1.20;;
9906;SDS011;4992;51.628;6.664;2022-09-14T04:59:22;5.80;;;1.40;;
9906;SDS011;4992;51.628;6.664;2022-09-14T05:01:48;3.63;;;1.10;;
9906;SDS011;4992;51.628;6.664;2022-09-14T05:04:14;5.35;;;1.23;;
9906;SDS011;4992;51.628;6.664;2022-09-14T05:06:41;7.60;;;1.75;;
9906;SDS011;4992;51.628;6.664;2022-09-14T05:09:12;5.30;;;1.58;;
9906;SDS011;4992;51.628;6.664;2022-09-14T05:11:40;5.10;;;1.35;;
9906;SDS011;4992;51.628;6.664;2022-09-14T05:14:06;5.72;;;1.92;;
9906;SDS011;4992;51.628;6.664;2022-09-14T05:16:37;4.50;;;1.20;;
9906;SDS011;4992;51.628;6.664;2022-09-14T05:19:05;4.30;;;2.05;;
9906;SDS011;4992;51.628;6.664;2022-09-14T05:21:34;5.57;;;1.60;;
9906;SDS011;4992;51.628;6.664;2022-09-14T05:24:01;8.13;;;2.15;;
9906;SDS011;4992;51.628;6.664;2022-09-14T05:26:30;4.03;;;1.42;;
9906;SDS011;4992;51.628;6.664;2022-09-14T05:28:57;6.18;;;1.65;;
9906;SDS011;4992;51.628;6.664;2022-09-14T05:31:25;5.38;;;1.52;;
9906;SDS011;4992;51.628;6.664;2022-09-14T05:33:51;4.80;;;1.55;;
9906;SDS011;4992;51.628;6.664;2022-09-14T05:36:17;8.13;;;2.00;;
9906;SDS011;4992;51.628;6.664;2022-09-14T05:38:43;5.43;;;1.58;;
9906;SDS011;4992;51.628;6.664;2022-09-14T05:41:10;4.95;;;1.75;;
9906;SDS011;4992;51.628;6.664;2022-09-14T05:43:38;4.43;;;1.50;;
9906;SDS011;4992;51.628;6.664;2022-09-14T05:46:09;5.93;;;1.83;;
9906;SDS011;4992;51.628;6.664;2022-09-14T05:48:37;4.82;;;1.77;;
9906;SDS011;4992;51.628;6.664;2022-09-14T05:51:13;4.93;;;1.50;;
9906;SDS011;4992;51.628;6.664;2022-09-14T05:53:40;4.95;;;1.13;;
9906;SDS011;4992;51.628;6.664;2022-09-14T05:56:11;3.35;;;1.50;;
9906;SDS011;4992;51.628;6.664;2022-09-14T05:58:38;6.03;;;2.10;;
9906;SDS011;4992;51.628;6.664;2022-09-14T06:01:06;7.07;;;1.92;;
9906;SDS011;4992;51.628;6.664;2022-09-14T06:03:35;7.03;;;2.10;;
9906;SDS011;4992;51.628;6.664;2022-09-14T06:06:02;6.05;;;2.17;;
9906;SDS011;4992;51.628;6.664;2022-09-14T06:08:28;10.40;;;2.10;;
9906;SDS011;4992;51.628;6.664;2022-09-14T06:10:54;8.15;;;1.80;;
9906;SDS011;4992;51.628;6.664;2022-09-14T06:13:20;6.15;;;1.85;;
9906;SDS011;4992;51.628;6.664;2022-09-14T06:15:47;9.45;;;2.13;;
9906;SDS011;4992;51.628;6.664;2022-09-14T06:18:13;7.70;;;1.70;;
9906;SDS011;4992;51.628;6.664;2022-09-14T06:20:38;6.78;;;2.00;;
9906;SDS011;4992;51.628;6.664;2022-09-14T06:23:04;9.20;;;2.33;;
9906;SDS011;4992;51.628;6.664;2022-09-14T06:25:29;7.50;;;2.00;;
9906;SDS011;4992;51.628;6.664;2022-09-14T06:27:55;9.38;;;1.90;;
9906;SDS011;4992;51.628;6.664;2022-09-14T06:30:21;6.10;;;2.00;;
9906;SDS011;4992;51.628;6.664;2022-09-14T06:32:46;7.57;;;2.03;;
9906;SDS011;4992;51.628;6.664;2022-09-14T06:35:12;5.03;;;1.80;;
9906;SDS011;4992;51.628;6.664;2022-09-14T06:37:38;7.05;;;2.33;;
9906;SDS011;4992;51.628;6.664;2022-09-14T06:40:05;4.32;;;2.10;;
9906;SDS011;4992;51.628;6.664;2022-09-14T06:42:31;13.05;;;3.25;;
9906;SDS011;4992;51.628;6.664;2022-09-14T06:44:56;5.20;;;1.77;;
9906;SDS011;4992;51.628;6.664;2022-09-14T06:47:22;5.72;;;1.73;;
9906;SDS011;4992;51.628;6.664;2022-09-14T06:49:48;5.75;;;1.90;;
9906;SDS011;4992;51.628;6.664;2022-09-14T06:52:14;6.88;;;1.58;;
9906;SDS011;4992;51.628;6.664;2022-09-14T06:54:40;3.63;;;1.33;;
9906;SDS011;4992;51.628;6.664;2022-09-14T06:57:05;3.65;;;1.42;;
9906;SDS011;4992;51.628;6.664;2022-09-14T06:59:31;7.57;;;1.50;;
9906;SDS011;4992;51.628;6.664;2022-09-14T07:01:56;7.50;;;1.33;;
9906;SDS011;4992;51.628;6.664;2022-09-14T07:04:22;7.10;;;1.83;;
9906;SDS011;4992;51.628;6.664;2022-09-14T07:06:48;4.32;;;1.50;;
9906;SDS011;4992;51.628;6.664;2022-09-14T07:09:15;2.55;;;1.25;;
9906;SDS011;4992;51.628;6.664;2022-09-14T07:11:42;5.18;;;1.40;;
9906;SDS011;4992;51.628;6.664;2022-09-14T07:14:08;4.25;;;1.65;;
9906;SDS011;4992;51.628;6.664;2022-09-14T07:16:34;6.40;;;1.73;;
9906;SDS011;4992;51.628;6.664;2022-09-14T07:19:02;4.43;;;1.42;;
9906;SDS011;4992;51.628;6.664;2022-09-14T07:21:30;5.78;;;2.03;;
9906;SDS011;4992;51.628;6.664;2022-09-14T07:23:57;3.58;;;1.40;;
9906;SDS011;4992;51.628;6.664;2022-09-14T07:26:24;4.90;;;1.38;;
9906;SDS011;4992;51.628;6.664;2022-09-14T07:28:55;5.30;;;1.75;;
9906;SDS011;4992;51.628;6.664;2022-09-14T07:31:26;7.55;;;1.65;;
9906;SDS011;4992;51.628;6.664;2022-09-14T07:33:54;9.27;;;1.80;;
9906;SDS011;4992;51.628;6.664;2022-09-14T07:36:22;9.20;;;2.25;;
9906;SDS011;4992;51.628;6.664;2022-09-14T07:38:49;4.70;;;1.80;;
9906;SDS011;4992;51.628;6.664;2022-09-14T07:41:15;6.07;;;1.80;;
9906;SDS011;4992;51.628;6.664;2022-09-14T07:43:41;5.25;;;2.00;;
9906;SDS011;4992;51.628;6.664;2022-09-14T07:46:06;7.43;;;1.80;;
9906;SDS011;4992;51.628;6.664;2022-09-14T07:48:33;6.20;;;1.70;;
9906;SDS011;4992;51.628;6.664;2022-09-14T07:51:04;5.57;;;1.65;;
9906;SDS011;4992;51.628;6.664;2022-09-14T07:53:31;7.03;;;1.33;;
9906;SDS011;4992;51.628;6.664;2022-09-14T07:56:00;5.32;;;1.30;;
9906;SDS011;4992;51.628;6.664;2022-09-14T07:58:27;6.20;;;1.30;;
9906;SDS011;4992;51.628;6.664;2022-09-14T08:00:56;5.45;;;1.48;;
9906;SDS011;4992;51.628;6.664;2022-09-14T08:03:23;5.20;;;1.58;;
9906;SDS011;4992;51.628;6.664;2022-09-14T08:05:55;5.55;;;1.75;;
9906;SDS011;4992;51.628;6.664;2022-09-14T08:08:29;6.68;;;1.73;;
9906;SDS011;4992;51.628;6.664;2022-09-14T08:11:06;5.22;;;2.90;;
9906;SDS011;4992;51.628;6.664;2022-09-14T08:14:02;9.20;;;1.85;;
9906;SDS011;4992;51.628;6.664;2022-09-14T08:16:30;4.65;;;1.40;;
9906;SDS011;4992;51.628;6.664;2022-09-14T08:18:59;4.63;;;1.65;;
9906;SDS011;4992;51.628;6.664;2022-09-14T08:21:26;3.65;;;1.40;;
9906;SDS011;4992;51.628;6.664;2022-09-14T08:23:54;4.20;;;1.88;;
9906;SDS011;4992;51.628;6.664;2022-09-14T08:26:22;5.68;;;1.77;;
9906;SDS011;4992;51.628;6.664;2022-09-14T08:28:48;5.10;;;1.63;;
9906;SDS011;4992;51.628;6.664;2022-09-14T08:31:16;8.18;;;2.13;;
9906;SDS011;4992;51.628;6.664;2022-09-14T08:33:45;9.43;;;2.40;;
9906;SDS011;4992;51.628;6.664;2022-09-14T08:36:13;5.95;;;2.10;;
9906;SDS011;4992;51.628;6.664;2022-09-14T08:38:40;7.95;;;2.00;;
9906;SDS011;4992;51.628;6.664;2022-09-14T08:41:18;4.57;;;2.15;;
9906;SDS011;4992;51.628;6.664;2022-09-14T08:47:03;9.70;;;2.50;;
9906;SDS011;4992;51.628;6.664;2022-09-14T08:55:28;6.50;;;2.33;;
9906;SDS011;4992;51.628;6.664;2022-09-14T08:58:05;6.50;;;2.65;;
9906;SDS011;4992;51.628;6.664;2022-09-14T09:08:38;6.07;;;2.30;;
9906;SDS011;4992;51.628;6.664;2022-09-14T09:11:14;4.75;;;2.17;;
9906;SDS011;4992;51.628;6.664;2022-09-14T09:13:43;6.07;;;2.50;;
9906;SDS011;4992;51.628;6.664;2022-09-14T09:16:11;7.18;;;2.53;;
9906;SDS011;4992;51.628;6.664;2022-09-14T09:18:46;4.65;;;2.75;;
9906;SDS011;4992;51.628;6.664;2022-09-14T09:21:17;7.78;;;2.80;;
9906;SDS011;4992;51.628;6.664;2022-09-14T09:23:47;6.10;;;3.15;;
9906;SDS011;4992;51.628;6.664;2022-09-14T09:26:24;5.35;;;2.85;;
9906;SDS011;4992;51.628;6.664;2022-09-14T09:28:54;5.90;;;3.13;;
9906;SDS011;4992;51.628;6.664;2022-09-14T09:31:32;5.75;;;2.53;;
9906;SDS011;4992;51.628;6.664;2022-09-14T09:34:00;5.93;;;2.95;;
9906;SDS011;4992;51.628;6.664;2022-09-14T09:36:28;4.15;;;2.72;;
9906;SDS011;4992;51.628;6.664;2022-09-14T09:38:58;4.03;;;2.50;;
9906;SDS011;4992;51.628;6.664;2022-09-14T09:41:28;5.90;;;2.42;;
9906;SDS011;4992;51.628;6.664;2022-09-14T09:44:03;4.25;;;2.45;;
9906;SDS011;4992;51.628;6.664;2022-09-14T09:49:20;4.43;;;2.67;;
9906;SDS011;4992;51.628;6.664;2022-09-14T09:52:09;4.13;;;2.78;;
9906;SDS011;4992;51.628;6.664;2022-09-14T09:54:42;6.60;;;3.03;;
9906;SDS011;4992;51.628;6.664;2022-09-14T09:57:21;6.53;;;2.83;;
9906;SDS011;4992;51.628;6.664;2022-09-14T09:59:51;7.75;;;2.78;;
9906;SDS011;4992;51.628;6.664;2022-09-14T10:02:36;6.85;;;3.00;;
9906;SDS011;4992;51.628;6.664;2022-09-14T10:05:17;9.43;;;3.95;;
9906;SDS011;4992;51.628;6.664;2022-09-14T10:08:02;8.40;;;3.22;;
9906;SDS011;4992;51.628;6.664;2022-09-14T10:13:04;6.38;;;3.30;;
9906;SDS011;4992;51.628;6.664;2022-09-14T10:15:38;7.15;;;3.63;;
9906;SDS011;4992;51.628;6.664;2022-09-14T10:18:06;4.55;;;3.00;;
9906;SDS011;4992;51.628;6.664;2022-09-14T10:20:37;4.70;;;3.03;;
9906;SDS011;4992;51.628;6.664;2022-09-14T10:25:46;4.88;;;2.67;;
9906;SDS011;4992;51.628;6.664;2022-09-14T10:28:25;4.25;;;3.03;;
9906;SDS011;4992;51.628;6.664;2022-09-14T10:30:58;6.07;;;3.22;;
9906;SDS011;4992;51.628;6.664;2022-09-14T10:33:27;4.47;;;2.65;;
9906;SDS011;4992;51.628;6.664;2022-09-14T10:38:41;5.50;;;2.63;;
9906;SDS011;4992;51.628;6.664;2022-09-14T10:47:02;3.17;;;2.28;;
9906;SDS011;4992;51.628;6.664;2022-09-14T10:55:43;6.82;;;2.65;;
9906;SDS011;4992;51.628;6.664;2022-09-14T10:58:37;4.38;;;2.28;;
9906;SDS011;4992;51.628;6.664;2022-09-14T11:07:09;3.60;;;2.67;;
9906;SDS011;4992;51.628;6.664;2022-09-14T11:10:18;4.40;;;2.53;;
9906;SDS011;4992;51.628;6.664;2022-09-14T11:15:43;4.13;;;2.35;;
9906;SDS011;4992;51.628;6.664;2022-09-14T11:21:23;9.07;;;3.15;;
9906;SDS011;4992;51.628;6.664;2022-09-14T11:23:57;4.80;;;2.58;;
9906;SDS011;4992;51.628;6.664;2022-09-14T11:26:34;2.72;;;1.92;;
9906;SDS011;4992;51.628;6.664;2022-09-14T11:29:15;4.82;;;2.80;;
9906;SDS011;4992;51.628;6.664;2022-09-14T11:34:38;3.45;;;2.35;;
9906;SDS011;4992;51.628;6.664;2022-09-14T11:37:18;3.63;;;2.42;;
9906;SDS011;4992;51.628;6.664;2022-09-14T11:39:52;5.05;;;2.30;;
9906;SDS011;4992;51.628;6.664;2022-09-14T11:45:28;3.00;;;1.73;;
9906;SDS011;4992;51.628;6.664;2022-09-14T11:48:00;3.72;;;1.70;;
9906;SDS011;4992;51.628;6.664;2022-09-14T11:50:32;2.20;;;1.00;;
9906;SDS011;4992;51.628;6.664;2022-09-14T11:53:17;1.95;;;0.57;;
9906;SDS011;4992;51.628;6.664;2022-09-14T11:55:45;4.80;;;1.38;;
9906;SDS011;4992;51.628;6.664;2022-09-14T11:58:17;3.45;;;1.20;;
9906;SDS011;4992;51.628;6.664;2022-09-14T12:03:17;2.88;;;1.40;;
9906;SDS011;4992;51.628;6.664;2022-09-14T12:05:45;3.65;;;1.10;;
9906;SDS011;4992;51.628;6.664;2022-09-14T12:13:33;2.20;;;1.15;;
9906;SDS011;4992;51.628;6.664;2022-09-14T12:16:03;1.38;;;1.10;;
9906;SDS011;4992;51.628;6.664;2022-09-14T12:18:31;3.35;;;1.50;;
9906;SDS011;4992;51.628;6.664;2022-09-14T12:21:00;4.30;;;2.03;;
9906;SDS011;4992;51.628;6.664;2022-09-14T12:28:45;2.72;;;1.58;;
9906;SDS011;4992;51.628;6.664;2022-09-14T12:31:28;3.15;;;1.40;;
9906;SDS011;4992;51.628;6.664;2022-09-14T12:39:22;3.95;;;1.92;;
9906;SDS011;4992;51.628;6.664;2022-09-14T12:44:27;4.82;;;1.70;;
9906;SDS011;4992;51.628;6.664;2022-09-14T12:46:56;5.97;;;1.92;;
9906;SDS011;4992;51.628;6.664;2022-09-14T12:49:23;4.18;;;1.40;;
9906;SDS011;4992;51.628;6.664;2022-09-14T12:51:54;3.33;;;1.75;;
9906;SDS011;4992;51.628;6.664;2022-09-14T12:54:25;4.68;;;2.25;;
9906;SDS011;4992;51.628;6.664;2022-09-14T12:57:18;4.65;;;1.70;;
9906;SDS011;4992;51.628;6.664;2022-09-14T13:00:09;3.42;;;1.65;;
9906;SDS011;4992;51.628;6.664;2022-09-14T13:02:58;3.13;;;2.17;;
9906;SDS011;4992;51.628;6.664;2022-09-14T13:05:28;4.38;;;1.80;;
9906;SDS011;4992;51.628;6.664;2022-09-14T13:07:56;4.13;;;2.55;;
9906;SDS011;4992;51.628;6.664;2022-09-14T13:13:04;3.13;;;2.75;;
9906;SDS011;4992;51.628;6.664;2022-09-14T13:15:42;3.38;;;2.33;;
9906;SDS011;4992;51.628;6.664;2022-09-14T13:20:50;2.80;;;2.60;;
9906;SDS011;4992;51.628;6.664;2022-09-14T13:23:27;7.13;;;2.97;;
9906;SDS011;4992;51.628;6.664;2022-09-14T13:25:53;4.25;;;2.78;;
9906;SDS011;4992;51.628;6.664;2022-09-14T13:28:19;6.10;;;3.42;;
9906;SDS011;4992;51.628;6.664;2022-09-14T13:30:52;3.17;;;1.75;;
9906;SDS011;4992;51.628;6.664;2022-09-14T13:33:22;4.47;;;2.47;;
9906;SDS011;4992;51.628;6.664;2022-09-14T13:35:49;3.42;;;2.53;;
9906;SDS011;4992;51.628;6.664;2022-09-14T13:38:23;3.35;;;1.80;;
9906;SDS011;4992;51.628;6.664;2022-09-14T13:40:53;3.22;;;2.10;;
9906;SDS011;4992;51.628;6.664;2022-09-14T13:43:26;2.40;;;1.92;;
9906;SDS011;4992;51.628;6.664;2022-09-14T13:45:52;4.20;;;2.17;;
9906;SDS011;4992;51.628;6.664;2022-09-14T13:48:18;4.03;;;2.42;;
9906;SDS011;4992;51.628;6.664;2022-09-14T13:50:48;5.13;;;2.85;;
9906;SDS011;4992;51.628;6.664;2022-09-14T13:53:34;4.90;;;2.50;;
9906;SDS011;4992;51.628;6.664;2022-09-14T13:56:03;2.80;;;2.42;;
9906;SDS011;4992;51.628;6.664;2022-09-14T14:01:39;3.42;;;2.90;;
9906;SDS011;4992;51.628;6.664;2022-09-14T14:04:33;3.53;;;3.05;;
9906;SDS011;4992;51.628;6.664;2022-09-14T14:07:03;6.68;;;2.92;;
9906;SDS011;4992;51.628;6.664;2022-09-14T14:09:53;3.80;;;2.80;;
9906;SDS011;4992;51.628;6.664;2022-09-14T14:12:28;5.05;;;3.13;;
9906;SDS011;4992;51.628;6.664;2022-09-14T14:15:04;8.60;;;3.10;;
9906;SDS011;4992;51.628;6.664;2022-09-14T14:17:50;5.03;;;4.32;;
9906;SDS011;4992;51.628;6.664;2022-09-14T14:25:33;4.13;;;3.00;;
9906;SDS011;4992;51.628;6.664;2022-09-14T14:28:02;3.40;;;2.90;;
9906;SDS011;4992;51.628;6.664;2022-09-14T14:30:32;5.78;;;3.15;;
9906;SDS011;4992;51.628;6.664;2022-09-14T14:33:01;3.72;;;3.22;;
9906;SDS011;4992;51.628;6.664;2022-09-14T14:35:27;5.28;;;3.25;;
9906;SDS011;4992;51.628;6.664;2022-09-14T14:37:54;5.30;;;3.10;;
9906;SDS011;4992;51.628;6.664;2022-09-14T14:40:21;4.50;;;2.90;;
9906;SDS011;4992;51.628;6.664;2022-09-14T14:42:47;5.78;;;3.08;;
9906;SDS011;4992;51.628;6.664;2022-09-14T14:45:14;5.07;;;2.83;;
9906;SDS011;4992;51.628;6.664;2022-09-14T14:47:51;6.45;;;2.97;;
9906;SDS011;4992;51.628;6.664;2022-09-14T14:50:22;5.70;;;2.83;;
9906;SDS011;4992;51.628;6.664;2022-09-14T14:52:52;4.35;;;3.03;;
9906;SDS011;4992;51.628;6.664;2022-09-14T14:55:19;4.55;;;3.10;;
9906;SDS011;4992;51.628;6.664;2022-09-14T14:57:45;6.47;;;3.28;;
9906;SDS011;4992;51.628;6.664;2022-09-14T15:00:13;7.47;;;4.60;;
9906;SDS011;4992;51.628;6.664;2022-09-14T15:02:41;13.20;;;10.05;;
9906;SDS011;4992;51.628;6.664;2022-09-14T15:05:06;8.88;;;5.45;;
9906;SDS011;4992;51.628;6.664;2022-09-14T15:07:33;5.25;;;3.75;;
9906;SDS011;4992;51.628;6.664;2022-09-14T15:09:59;8.40;;;3.90;;
9906;SDS011;4992;51.628;6.664;2022-09-14T15:12:24;6.28;;;4.57;;
9906;SDS011;4992;51.628;6.664;2022-09-14T15:14:50;5.78;;;4.57;;
9906;SDS011;4992;51.628;6.664;2022-09-14T15:17:15;4.53;;;3.83;;
9906;SDS011;4992;51.628;6.664;2022-09-14T15:19:41;6.70;;;3.55;;
9906;SDS011;4992;51.628;6.664;2022-09-14T15:22:07;5.00;;;3.67;;
9906;SDS011;4992;51.628;6.664;2022-09-14T15:24:33;3.47;;;2.60;;
9906;SDS011;4992;51.628;6.664;2022-09-14T15:26:59;4.22;;;2.50;;
9906;SDS011;4992;51.628;6.664;2022-09-14T15:29:24;4.55;;;3.42;;
9906;SDS011;4992;51.628;6.664;2022-09-14T15:31:50;6.95;;;5.22;;
9906;SDS011;4992;51.628;6.664;2022-09-14T15:34:15;4.60;;;3.40;;
9906;SDS011;4992;51.628;6.664;2022-09-14T15:39:22;5.20;;;3.17;;
9906;SDS011;4992;51.628;6.664;2022-09-14T15:41:50;7.65;;;5.28;;
9906;SDS011;4992;51.628;6.664;2022-09-14T15:44:17;4.55;;;3.90;;
9906;SDS011;4992;51.628;6.664;2022-09-14T15:46:42;4.45;;;3.13;;
9906;SDS011;4992;51.628;6.664;2022-09-14T15:49:30;4.03;;;3.28;;
9906;SDS011;4992;51.628;6.664;2022-09-14T15:51:55;6.25;;;4.18;;
9906;SDS011;4992;51.628;6.664;2022-09-14T15:54:25;5.78;;;3.28;;
9906;SDS011;4992;51.628;6.664;2022-09-14T15:56:56;7.10;;;4.47;;
9906;SDS011;4992;51.628;6.664;2022-09-14T15:59:24;4.90;;;3.58;;
9906;SDS011;4992;51.628;6.664;2022-09-14T16:01:50;5.65;;;3.80;;
9906;SDS011;4992;51.628;6.664;2022-09-14T16:04:16;5.05;;;4.40;;
9906;SDS011;4992;51.628;6.664;2022-09-14T16:06:42;5.72;;;4.95;;
9906;SDS011;4992;51.628;6.664;2022-09-14T16:09:08;8.55;;;4.20;;
9906;SDS011;4992;51.628;6.664;2022-09-14T16:11:36;8.55;;;4.75;;
9906;SDS011;4992;51.628;6.664;2022-09-14T16:14:03;5.97;;;4.30;;
9906;SDS011;4992;51.628;6.664;2022-09-14T16:16:30;6.97;;;5.10;;
9906;SDS011;4992;51.628;6.664;2022-09-14T16:18:56;11.48;;;5.85;;
9906;SDS011;4992;51.628;6.664;2022-09-14T16:21:23;7.25;;;5.30;;
9906;SDS011;4992;51.628;6.664;2022-09-14T16:23:51;5.60;;;4.68;;
9906;SDS011;4992;51.628;6.664;2022-09-14T16:26:19;5.93;;;4.25;;
9906;SDS011;4992;51.628;6.664;2022-09-14T16:28:49;8.50;;;4.68;;
9906;SDS011;4992;51.628;6.664;2022-09-14T16:31:20;7.63;;;4.53;;
9906;SDS011;4992;51.628;6.664;2022-09-14T16:33:51;6.80;;;3.95;;
9906;SDS011;4992;51.628;6.664;2022-09-14T16:36:20;5.70;;;3.90;;
9906;SDS011;4992;51.628;6.664;2022-09-14T16:38:48;4.45;;;4.03;;
9906;SDS011;4992;51.628;6.664;2022-09-14T16:41:14;6.47;;;3.90;;
9906;SDS011;4992;51.628;6.664;2022-09-14T16:43:40;5.03;;;4.03;;
9906;SDS011;4992;51.628;6.664;2022-09-14T16:46:07;6.35;;;4.30;;
9906;SDS011;4992;51.628;6.664;2022-09-14T16:48:41;5.10;;;4.00;;
9906;SDS011;4992;51.628;6.664;2022-09-14T16:51:08;7.30;;;4.25;;
9906;SDS011;4992;51.628;6.664;2022-09-14T16:53:35;7.38;;;4.13;;
9906;SDS011;4992;51.628;6.664;2022-09-14T16:56:24;4.93;;;4.20;;
9906;SDS011;4992;51.628;6.664;2022-09-14T16:58:51;4.68;;;4.22;;
9906;SDS011;4992;51.628;6.664;2022-09-14T17:01:18;7.05;;;5.18;;
9906;SDS011;4992;51.628;6.664;2022-09-14T17:03:47;5.88;;;5.20;;
9906;SDS011;4992;51.628;6.664;2022-09-14T17:06:15;5.18;;;3.90;;
9906;SDS011;4992;51.628;6.664;2022-09-14T17:08:43;6.43;;;4.05;;
9906;SDS011;4992;51.628;6.664;2022-09-14T17:11:09;5.82;;;4.10;;
9906;SDS011;4992;51.628;6.664;2022-09-14T17:13:36;4.03;;;3.60;;
9906;SDS011;4992;51.628;6.664;2022-09-14T17:16:06;4.35;;;3.30;;
9906;SDS011;4992;51.628;6.664;2022-09-14T17:18:37;4.80;;;3.05;;
9906;SDS011;4992;51.628;6.664;2022-09-14T17:21:05;4.50;;;3.50;;
9906;SDS011;4992;51.628;6.664;2022-09-14T17:23:33;7.18;;;3.58;;
9906;SDS011;4992;51.628;6.664;2022-09-14T17:25:59;7.18;;;3.50;;
9906;SDS011;4992;51.628;6.664;2022-09-14T17:28:27;3.88;;;3.17;;
9906;SDS011;4992;51.628;6.664;2022-09-14T17:30:57;4.65;;;3.60;;
9906;SDS011;4992;51.628;6.664;2022-09-14T17:33:24;6.18;;;3.22;;
9906;SDS011;4992;51.628;6.664;2022-09-14T17:35:51;5.97;;;3.55;;
9906;SDS011;4992;51.628;6.664;2022-09-14T17:38:18;3.65;;;3.30;;
9906;SDS011;4992;51.628;6.664;2022-09-14T17:40:45;6.80;;;3.67;;
9906;SDS011;4992;51.628;6.664;2022-09-14T17:43:11;5.60;;;3.45;;
9906;SDS011;4992;51.628;6.664;2022-09-14T17:45:39;5.82;;;3.20;;
9906;SDS011;4992;51.628;6.664;2022-09-14T17:48:14;5.97;;;3.63;;